Time;durP1;ratioP1;P1;durP2;ratioP2;P2;SDS_P1;SDS_P2;PMS_P1;PMS_P2;Temp;Humidity;BMP_temperature;BMP_pressure;BME280_temperature;BME280_humidity;BME280_pressure;Samples;Min_cycle;Max_cycle;Signal;HPM_P1;HPM_P2
2022/04/27 00:00:03;;;;;;;7.23;6.63;;;;;;;6.21;100.00;97204.78;5045621;28;20244;-51
2022/04/27 00:02:31;;;;;;;7.23;6.63;;;;;;;6.20;100.00;97203.13;5060350;28;20230;-56
2022/04/27 00:05:01;;;;;;;8.53;7.77;;;;;;;6.22;100.00;97201.16;5063442;28;20202;-55
2022/04/27 00:07:29;;;;;;;7.63;6.83;;;;;;;6.18;100.00;97199.84;5047114;28;20202;-58
2022/04/27 00:09:57;;;;;;;8.03;7.33;;;;;;;6.21;100.00;97202.16;5043422;28;20444;-54
2022/04/27 00:12:26;;;;;;;8.27;7.57;;;;;;;6.23;100.00;97202.81;5049974;28;20207;-55
2022/04/27 00:14:54;;;;;;;7.60;7.00;;;;;;;6.23;100.00;97205.44;5048470;28;20825;-56
2022/04/27 00:17:21;;;;;;;7.80;7.13;;;;;;;6.20;100.00;97199.66;5060653;28;20203;-52
2022/04/27 00:19:50;;;;;;;7.97;7.33;;;;;;;6.17;100.00;97197.34;5064926;28;20318;-55
2022/04/27 00:22:19;;;;;;;7.87;6.90;;;;;;;6.26;100.00;97196.44;5065874;28;20592;-51
2022/04/27 00:24:47;;;;;;;8.23;7.53;;;;;;;6.33;100.00;97194.81;5022017;28;20230;-52
2022/04/27 00:27:15;;;;;;;8.43;7.63;;;;;;;6.21;100.00;97196.06;5048338;28;21535;-50
2022/04/27 00:29:43;;;;;;;7.50;6.90;;;;;;;6.19;100.00;97193.59;5050547;28;20605;-53
2022/04/27 00:32:11;;;;;;;7.80;7.20;;;;;;;6.23;100.00;97194.09;5062199;28;21081;-48
2022/04/27 00:34:39;;;;;;;7.23;6.63;;;;;;;6.32;100.00;97197.59;5065538;28;20206;-54
2022/04/27 00:37:07;;;;;;;8.13;7.43;;;;;;;6.25;100.00;97192.16;5062582;28;20658;-54
2022/04/27 00:39:37;;;;;;;8.43;7.63;;;;;;;6.26;100.00;97193.81;5026579;28;20230;-53
2022/04/27 00:42:14;;;;;;;7.80;7.10;;;;;;;6.27;100.00;97194.63;5051715;28;20206;-56
2022/04/27 00:44:43;;;;;;;7.67;6.97;;;;;;;6.26;100.00;97192.97;5065423;28;20232;-50
2022/04/27 00:47:12;;;;;;;7.97;7.30;;;;;;;6.29;100.00;97204.00;5044055;28;20244;-49
2022/04/27 00:49:42;;;;;;;7.93;7.23;;;;;;;6.33;100.00;97197.44;5066787;28;20222;-53
2022/04/27 00:52:12;;;;;;;8.20;7.50;;;;;;;6.35;100.00;97205.19;5063957;28;20825;-55
2022/04/27 00:54:42;;;;;;;6.83;6.23;;;;;;;6.27;100.00;97195.44;5067074;28;20307;-56
2022/04/27 00:57:11;;;;;;;8.40;7.70;;;;;;;6.23;100.00;97200.19;5027490;28;20241;-56
2022/04/27 00:59:40;;;;;;;8.23;7.53;;;;;;;6.18;100.00;97199.00;5049205;28;21165;-56
2022/04/27 01:02:09;;;;;;;7.93;7.23;;;;;;;6.19;100.00;97203.28;5045156;28;20449;-53
2022/04/27 01:04:38;;;;;;;7.83;7.03;;;;;;;6.21;100.00;97204.78;5067145;28;20262;-55
2022/04/27 01:07:07;;;;;;;7.70;7.00;;;;;;;6.27;100.00;97213.88;5066556;28;20500;-58
2022/04/27 01:09:35;;;;;;;7.90;7.20;;;;;;;6.24;100.00;97214.16;5069529;28;20316;-53
2022/04/27 01:12:06;;;;;;;8.80;8.00;;;;;;;6.16;100.00;97209.69;5023412;28;20222;-56
2022/04/27 01:14:41;;;;;;;9.03;8.27;;;;;;;6.11;100.00;97211.97;5051526;28;20406;-55
2022/04/27 01:17:09;;;;;;;8.40;7.70;;;;;;;6.11;100.00;97206.72;5049108;28;20857;-52
2022/04/27 01:19:37;;;;;;;9.20;8.40;;;;;;;6.08;100.00;97213.09;5066671;28;20226;-57
2022/04/27 01:22:07;;;;;;;8.33;7.63;;;;;;;6.02;100.00;97218.97;5064619;28;20678;-56
2022/04/27 01:24:36;;;;;;;9.40;8.60;;;;;;;6.02;100.00;97218.13;5067102;28;20229;-54
2022/04/27 01:27:05;;;;;;;8.20;7.40;;;;;;;5.96;100.00;97216.09;5024143;28;20238;-55
2022/04/27 01:29:34;;;;;;;9.70;8.80;;;;;;;5.95;100.00;97217.91;5048382;28;20230;-51
2022/04/27 01:32:02;;;;;;;9.17;8.27;;;;;;;5.99;100.00;97216.63;5056733;28;20203;-58
2022/04/27 01:34:30;;;;;;;8.93;8.03;;;;;;;6.08;100.00;97220.97;5065363;28;20198;-56
2022/04/27 01:37:59;;;;;;;9.90;9.00;;;;;;;6.03;100.00;97228.50;5065598;28;20354;-55
2022/04/27 01:39:49;;;;;;;9.53;8.63;;;;;;;5.98;100.00;97224.66;5064777;28;20219;-56
2022/04/27 01:42:17;;;;;;;9.63;8.73;;;;;;;5.95;100.00;97225.81;5022144;28;20406;-52
2022/04/27 01:44:45;;;;;;;8.80;8.00;;;;;;;6.03;100.00;97225.03;5050020;28;20521;-54
2022/04/27 01:47:13;;;;;;;8.47;7.73;;;;;;;6.02;100.00;97224.22;5046649;28;20909;-57
2022/04/27 01:49:41;;;;;;;7.70;7.10;;;;;;;6.01;100.00;97233.09;5068019;28;20223;-53
2022/04/27 01:54:56;;;;;;;6.53;6.03;;;;;;;6.05;100.00;97230.97;5062825;28;20206;-56
2022/04/27 01:57:24;;;;;;;6.93;6.33;;;;;;;6.08;100.00;97233.31;5025050;28;20422;-55
2022/04/27 01:59:53;;;;;;;7.80;7.10;;;;;;;6.10;100.00;97236.63;5060673;28;20261;-57
2022/04/27 02:02:21;;;;;;;7.60;7.00;;;;;;;6.11;100.00;97224.28;5040079;28;20970;-55
2022/04/27 02:04:50;;;;;;;7.63;7.03;;;;;;;6.13;100.00;97231.06;5068678;28;20232;-55
2022/04/27 02:07:18;;;;;;;8.33;7.63;;;;;;;6.13;100.00;97233.69;5064334;28;20208;-52
2022/04/27 02:09:46;;;;;;;8.23;7.63;;;;;;;6.17;100.00;97236.81;5066754;28;20752;-54
2022/04/27 02:12:15;;;;;;;9.90;8.97;;;;;;;6.08;100.00;97231.50;5061856;28;20551;-51
2022/04/27 02:14:43;;;;;;;8.00;7.40;;;;;;;6.08;100.00;97234.13;5000103;28;20223;-52
2022/04/27 02:17:11;;;;;;;8.77;7.97;;;;;;;6.04;100.00;97238.06;5043416;28;20214;-50
2022/04/27 02:19:39;;;;;;;7.60;7.00;;;;;;;6.01;100.00;97238.38;5047876;28;20320;-54
2022/04/27 02:22:07;;;;;;;6.93;6.43;;;;;;;6.02;100.00;97241.81;5061848;28;20573;-51
2022/04/27 02:24:35;;;;;;;6.93;6.33;;;;;;;6.02;100.00;97247.06;5070141;28;20701;-49
2022/04/27 02:27:04;;;;;;;7.03;6.43;;;;;;;6.10;100.00;97249.78;5066500;28;20244;-57
2022/04/27 02:29:34;;;;;;;6.60;6.03;;;;;;;6.14;100.00;97247.66;5021302;28;20228;-53
2022/04/27 02:32:02;;;;;;;6.83;6.27;;;;;;;6.18;100.00;97251.63;5043653;28;20774;-53
2022/04/27 02:34:30;;;;;;;7.27;6.70;;;;;;;6.16;100.00;97251.78;5046782;28;20206;-50
2022/04/27 02:36:58;;;;;;;8.10;7.33;;;;;;;6.16;100.00;97248.31;5035918;28;20694;-54
2022/04/27 02:39:26;;;;;;;6.83;6.23;;;;;;;6.13;100.00;97256.53;5065407;28;20219;-51
2022/04/27 02:41:54;;;;;;;7.20;6.50;;;;;;;6.03;100.00;97257.44;5068572;28;20208;-50
2022/04/27 02:44:22;;;;;;;7.83;7.03;;;;;;;5.94;100.00;97260.97;5018600;28;20310;-51
2022/04/27 02:46:52;;;;;;;8.03;7.23;;;;;;;5.95;100.00;97260.00;5045784;28;20711;-53
2022/04/27 02:52:06;;;;;;;5.50;5.00;;;;;;;5.97;100.00;97254.56;5040737;28;20206;-56
2022/04/27 02:54:34;;;;;;;6.60;6.10;;;;;;;5.95;100.00;97257.34;5030100;28;20301;-54
2022/04/27 02:57:03;;;;;;;6.30;5.80;;;;;;;5.90;100.00;97257.00;5062682;28;20678;-55
2022/04/27 02:59:31;;;;;;;6.95;6.45;;;;;;;5.85;100.00;97270.59;5061204;28;21135;-58
2022/04/27 03:02:00;;;;;;;6.77;6.27;;;;;;;5.73;100.00;97270.00;5021324;28;20214;-55
2022/04/27 03:04:28;;;;;;;6.07;5.60;;;;;;;5.73;100.00;97283.13;5025798;28;21214;-57
2022/04/27 03:06:56;;;;;;;5.70;5.20;;;;;;;5.72;100.00;97275.41;5044702;28;20206;-53
2022/04/27 03:09:24;;;;;;;5.30;4.90;;;;;;;5.75;100.00;97283.81;5063009;28;20236;-56
2022/04/27 03:11:52;;;;;;;5.40;5.00;;;;;;;5.75;100.00;97272.47;5067403;28;20210;-54
2022/04/27 03:14:20;;;;;;;6.17;5.57;;;;;;;5.79;100.00;97281.72;5064982;28;20290;-59
2022/04/27 03:16:49;;;;;;;5.93;5.43;;;;;;;5.83;100.00;97276.97;5019493;28;20721;-55
2022/04/27 03:19:18;;;;;;;6.30;5.80;;;;;;;5.83;100.00;97283.06;5036773;28;20299;-60
2022/04/27 03:21:46;;;;;;;5.63;5.23;;;;;;;5.82;100.00;97288.47;5020176;28;20214;-54
2022/04/27 03:24:14;;;;;;;5.40;5.00;;;;;;;5.86;100.00;97288.03;5057042;28;20233;-56
2022/04/27 03:26:42;;;;;;;6.00;5.53;;;;;;;5.82;100.00;97296.34;5057794;28;20230;-54
2022/04/27 03:29:10;;;;;;;5.80;5.40;;;;;;;5.79;100.00;97293.03;5060347;28;20452;-59
2022/04/27 03:31:38;;;;;;;6.50;5.93;;;;;;;5.82;100.00;97293.72;5065306;28;20803;-57
2022/04/27 03:34:06;;;;;;;6.90;6.38;;;;;;;5.86;100.00;97290.66;4999398;28;20459;-54
2022/04/27 03:36:36;;;;;;;6.00;5.60;;;;;;;5.92;100.00;97299.75;5017007;28;20229;-56
2022/04/27 03:39:04;;;;;;;5.37;5.00;;;;;;;5.94;100.00;97303.88;5042775;28;20420;-59
2022/04/27 03:41:32;;;;;;;7.03;6.50;;;;;;;5.89;100.00;97302.69;5046794;28;20233;-55
2022/04/27 03:44:00;;;;;;;6.20;5.77;;;;;;;5.77;100.00;97305.53;5061984;28;20525;-54
2022/04/27 03:46:28;;;;;;;6.00;5.50;;;;;;;5.82;100.00;97302.44;5068011;28;20237;-58
2022/04/27 03:49:16;;;;;;;5.57;5.07;;;;;;;5.76;100.00;97303.88;5003729;28;20237;-53
2022/04/27 03:51:45;;;;;;;5.50;5.10;;;;;;;5.69;100.00;97302.81;5056049;28;20756;-58
2022/04/27 03:54:14;;;;;;;7.07;6.57;;;;;;;5.64;100.00;97307.72;5040722;28;20949;-55
2022/04/27 03:56:42;;;;;;;6.47;6.07;;;;;;;5.58;100.00;97316.19;5054883;28;20819;-56
2022/04/27 03:59:10;;;;;;;5.70;5.30;;;;;;;5.56;100.00;97324.22;5051137;28;20938;-59
2022/04/27 04:01:37;;;;;;;5.90;5.50;;;;;;;5.52;100.00;97325.50;5067342;28;20202;-53
2022/04/27 04:04:06;;;;;;;6.73;6.13;;;;;;;5.53;100.00;97329.78;5022328;28;21738;-58
2022/04/27 04:06:34;;;;;;;6.33;5.83;;;;;;;5.52;100.00;97320.22;5072828;28;20307;-55
2022/04/27 04:09:03;;;;;;;6.70;5.63;;;;;;;5.45;100.00;97317.34;5029748;28;20338;-54
2022/04/27 04:11:31;;;;;;;6.63;6.13;;;;;;;5.47;100.00;97322.47;5072437;28;20229;-57
2022/04/27 04:13:59;;;;;;;5.97;5.50;;;;;;;5.43;100.00;97326.38;5050779;28;20403;-57
2022/04/27 04:16:27;;;;;;;6.47;5.97;;;;;;;5.51;100.00;97334.34;5071623;28;20206;-55
2022/04/27 04:18:55;;;;;;;6.53;6.13;;;;;;;5.47;100.00;97328.56;5069493;28;20234;-55
2022/04/27 04:21:24;;;;;;;7.10;6.40;;;;;;;5.54;100.00;97336.69;5027435;28;20299;-55
2022/04/27 04:23:52;;;;;;;7.20;6.50;;;;;;;5.53;100.00;97344.72;5042815;28;20276;-51
2022/04/27 04:29:07;;;;;;;7.37;6.77;;;;;;;5.60;100.00;97341.34;5045921;28;20530;-57
2022/04/27 04:31:35;;;;;;;6.70;6.20;;;;;;;5.59;100.00;97344.13;5071051;28;20203;-56
2022/04/27 04:34:08;;;;;;;7.30;6.70;;;;;;;5.58;100.00;97347.72;5047927;28;20228;-52
2022/04/27 04:36:36;;;;;;;7.40;6.60;;;;;;;5.56;100.00;97347.06;5022401;28;20229;-55
2022/04/27 04:39:04;;;;;;;8.53;7.83;;;;;;;5.60;100.00;97349.22;5038116;28;21036;-55
2022/04/27 04:41:33;;;;;;;7.93;7.33;;;;;;;5.65;100.00;97357.50;5045120;28;20287;-55
2022/04/27 04:44:02;;;;;;;7.70;7.07;;;;;;;5.67;100.00;97362.59;5050379;28;20207;-59
2022/04/27 04:46:30;;;;;;;6.93;6.43;;;;;;;5.74;100.00;97368.13;5065884;28;20407;-53
2022/04/27 04:48:58;;;;;;;7.63;7.03;;;;;;;5.78;100.00;97366.84;5062462;28;20232;-54
2022/04/27 04:51:26;;;;;;;7.23;6.73;;;;;;;5.85;100.00;97369.69;5017804;28;20237;-54
2022/04/27 04:54:03;;;;;;;8.52;7.82;;;;;;;5.90;100.00;97373.53;5066533;28;20444;-55
2022/04/27 04:56:31;;;;;;;8.70;8.10;;;;;;;5.96;100.00;97379.16;5026661;28;20768;-56
2022/04/27 04:59:01;;;;;;;9.25;8.45;;;;;;;5.94;100.00;97381.94;5068365;28;20474;-57
2022/04/27 05:01:29;;;;;;;7.23;6.73;;;;;;;5.89;100.00;97377.13;5044435;28;20293;-61
2022/04/27 05:03:57;;;;;;;8.07;7.47;;;;;;;6.08;100.00;97385.91;5069779;28;20206;-61
2022/04/27 05:06:32;;;;;;;8.07;7.37;;;;;;;6.08;100.00;97386.72;5029267;28;20440;-57
2022/04/27 05:09:00;;;;;;;7.97;7.17;;;;;;;6.11;100.00;97390.00;5071788;28;20286;-58
2022/04/27 05:11:29;;;;;;;8.00;7.30;;;;;;;6.17;100.00;97392.03;5048140;28;20202;-57
2022/04/27 05:13:56;;;;;;;7.83;7.23;;;;;;;6.23;100.00;97391.44;5047365;28;20311;-52
2022/04/27 05:16:26;;;;;;;8.07;7.27;;;;;;;6.29;100.00;97396.13;5044068;28;20437;-56
2022/04/27 05:18:54;;;;;;;9.97;8.87;;;;;;;6.38;100.00;97396.97;5066054;28;20261;-51
2022/04/27 05:21:22;;;;;;;7.63;6.93;;;;;;;6.40;100.00;97395.03;4991711;28;20788;-53
2022/04/27 05:23:50;;;;;;;7.87;7.27;;;;;;;6.52;100.00;97398.25;5064312;28;20222;-57
2022/04/27 05:26:18;;;;;;;8.70;7.83;;;;;;;6.66;100.00;97400.34;5044450;28;20227;-54
2022/04/27 05:34:33;;;;;;;9.57;8.77;;;;;;;7.15;100.00;97400.78;5025783;28;20210;-54
2022/04/27 05:37:01;;;;;;;8.73;8.03;;;;;;;7.38;100.00;97404.53;4978664;28;20216;-56
2022/04/27 05:39:29;;;;;;;8.13;7.43;;;;;;;7.53;100.00;97407.41;5022077;28;20431;-55
2022/04/27 05:41:57;;;;;;;8.87;8.00;;;;;;;7.79;100.00;97409.13;5004260;28;20403;-55
2022/04/27 05:44:27;;;;;;;8.97;8.27;;;;;;;7.90;100.00;97415.09;5003225;28;20969;-57
2022/04/27 05:46:56;;;;;;;7.93;7.33;;;;;;;7.71;100.00;97417.00;5004434;28;20238;-56
2022/04/27 05:49:24;;;;;;;7.43;6.83;;;;;;;7.84;100.00;97424.47;5020145;28;20501;-55
2022/04/27 05:51:52;;;;;;;7.00;6.40;;;;;;;7.91;100.00;97420.19;5023872;28;20204;-57
2022/04/27 05:54:20;;;;;;;6.77;6.27;;;;;;;7.98;100.00;97425.66;4972061;28;20419;-56
2022/04/27 05:56:49;;;;;;;8.05;7.45;;;;;;;7.97;100.00;97434.56;5021975;28;20564;-56
2022/04/27 05:59:17;;;;;;;6.30;5.80;;;;;;;7.80;100.00;97428.41;4973806;28;20706;-59
2022/04/27 06:01:45;;;;;;;7.00;6.50;;;;;;;7.56;100.00;97427.34;5025889;28;20660;-56
2022/04/27 06:04:21;;;;;;;6.93;6.40;;;;;;;7.53;100.00;97439.03;5000768;28;20395;-49
2022/04/27 06:06:49;;;;;;;7.30;6.70;;;;;;;7.37;100.00;97449.50;5021159;28;20386;-56
2022/04/27 06:09:17;;;;;;;7.13;6.53;;;;;;;7.39;100.00;97444.91;5005767;28;20243;-55
2022/04/27 06:11:45;;;;;;;9.20;8.40;;;;;;;7.28;100.00;97440.72;5063968;28;20990;-55
2022/04/27 06:14:13;;;;;;;7.33;6.73;;;;;;;7.25;100.00;97448.97;5027263;28;20245;-57
2022/04/27 06:16:41;;;;;;;9.35;8.43;;;;;;;7.30;100.00;97451.94;5063570;28;20444;-56
2022/04/27 06:19:11;;;;;;;9.52;8.65;;;;;;;7.36;100.00;97447.84;5051698;28;21248;-56
2022/04/27 06:21:41;;;;;;;9.32;8.52;;;;;;;7.30;100.00;97449.31;5062638;28;20531;-57
2022/04/27 06:24:09;;;;;;;7.83;7.13;;;;;;;7.39;100.00;97453.63;5043216;28;20252;-60
2022/04/27 06:26:38;;;;;;;8.43;7.73;;;;;;;7.68;100.00;97448.97;5052675;28;20275;-58
2022/04/27 06:29:06;;;;;;;7.17;6.60;;;;;;;7.86;100.00;97451.50;5043008;28;20242;-59
2022/04/27 06:31:34;;;;;;;7.80;7.20;;;;;;;8.18;100.00;97460.50;5054295;28;20210;-51
2022/04/27 06:34:02;;;;;;;6.97;6.37;;;;;;;8.47;100.00;97453.97;5050991;28;20924;-55
2022/04/27 06:36:30;;;;;;;7.27;6.77;;;;;;;8.63;100.00;97468.19;5066836;28;20409;-57
2022/04/27 06:39:00;;;;;;;7.33;6.73;;;;;;;8.60;100.00;97471.16;5068440;28;20254;-56
2022/04/27 06:41:28;;;;;;;8.97;8.27;;;;;;;8.40;100.00;97469.63;5029914;28;20371;-56
2022/04/27 06:43:56;;;;;;;8.82;8.05;;;;;;;8.40;100.00;97480.19;5063986;28;20441;-56
2022/04/27 06:46:24;;;;;;;8.77;8.07;;;;;;;8.32;100.00;97484.63;5041352;28;20458;-54
2022/04/27 06:48:52;;;;;;;9.90;9.10;;;;;;;8.25;100.00;97485.25;5043472;28;20508;-55
2022/04/27 06:51:20;;;;;;;9.15;8.45;;;;;;;8.43;100.00;97486.13;5058514;28;20547;-54
2022/04/27 06:53:49;;;;;;;8.57;7.97;;;;;;;8.41;100.00;97483.66;5058969;28;20453;-52
2022/04/27 06:56:18;;;;;;;9.07;8.37;;;;;;;8.52;100.00;97485.16;5020290;28;20552;-60
2022/04/27 06:58:46;;;;;;;8.95;8.32;;;;;;;8.84;100.00;97486.19;5064372;28;20456;-49
2022/04/27 07:01:14;;;;;;;8.77;8.07;;;;;;;8.85;100.00;97487.81;5039465;28;20962;-56
2022/04/27 07:03:43;;;;;;;9.30;8.60;;;;;;;9.04;100.00;97481.38;5049678;28;20448;-58
2022/04/27 07:06:11;;;;;;;8.30;7.70;;;;;;;9.42;100.00;97486.13;5060067;28;20454;-56
2022/04/27 07:08:40;;;;;;;7.73;7.13;;;;;;;9.78;100.00;97487.50;5064453;28;20198;-56
2022/04/27 07:11:08;;;;;;;7.50;6.90;;;;;;;9.90;100.00;97491.44;5041734;28;20285;-57
2022/04/27 07:13:38;;;;;;;7.47;6.87;;;;;;;9.70;100.00;97494.47;5050502;28;20299;-58
2022/04/27 07:16:06;;;;;;;6.87;6.37;;;;;;;9.93;100.00;97496.38;5058700;28;20601;-60
2022/04/27 07:18:34;;;;;;;7.43;6.83;;;;;;;10.16;100.00;97495.59;5037666;28;21052;-55
2022/04/27 07:21:03;;;;;;;8.40;7.80;;;;;;;10.01;100.00;97511.38;5062526;28;20457;-51
2022/04/27 07:23:37;;;;;;;7.55;7.05;;;;;;;10.39;100.00;97508.06;5058597;28;20437;-57
2022/04/27 07:26:07;;;;;;;7.80;7.30;;;;;;;10.10;100.00;97507.72;5061144;28;20242;-57
2022/04/27 07:28:35;;;;;;;7.43;6.93;;;;;;;10.31;100.00;97502.81;5022398;28;20472;-55
2022/04/27 07:31:05;;;;;;;6.90;6.40;;;;;;;10.37;100.00;97510.06;5060253;28;20228;-58
2022/04/27 07:33:34;;;;;;;7.57;7.07;;;;;;;10.20;100.00;97515.41;5035911;28;20312;-57
2022/04/27 07:36:02;;;;;;;8.23;7.63;;;;;;;9.99;100.00;97519.50;5063651;28;20210;-54
2022/04/27 07:38:30;;;;;;;9.33;8.63;;;;;;;10.05;100.00;97520.66;5062313;28;20356;-57
2022/04/27 07:40:58;;;;;;;9.13;8.40;;;;;;;9.59;100.00;97523.94;5062319;28;20218;-59
2022/04/27 07:43:26;;;;;;;10.03;9.23;;;;;;;9.62;100.00;97528.88;5020756;28;21335;-56
2022/04/27 07:45:54;;;;;;;10.17;9.37;;;;;;;10.17;100.00;97522.91;5062947;28;20217;-54
2022/04/27 07:48:23;;;;;;;10.73;9.83;;;;;;;10.21;100.00;97537.44;5027420;28;20554;-56
2022/04/27 07:50:51;;;;;;;10.40;9.60;;;;;;;10.44;100.00;97531.41;5061096;28;20206;-58
2022/04/27 07:53:19;;;;;;;10.05;9.15;;;;;;;10.42;100.00;97529.75;5061458;28;20449;-56
2022/04/27 07:55:47;;;;;;;9.33;8.63;;;;;;;10.20;100.00;97547.19;5064126;28;20202;-59
2022/04/27 07:58:15;;;;;;;9.60;8.80;;;;;;;10.32;100.00;97544.19;5063661;28;20191;-58
2022/04/27 08:00:43;;;;;;;10.75;9.85;;;;;;;10.10;100.00;97554.53;5020018;28;20449;-56
2022/04/27 08:03:12;;;;;;;10.95;10.15;;;;;;;10.00;100.00;97549.44;5033723;28;20450;-55
2022/04/27 08:05:42;;;;;;;9.90;9.10;;;;;;;10.20;100.00;97551.69;5064346;28;20237;-56
2022/04/27 08:08:10;;;;;;;10.60;9.70;;;;;;;10.53;100.00;97562.16;5065021;28;20461;-57
2022/04/27 08:10:38;;;;;;;11.07;10.18;;;;;;;10.16;100.00;97560.97;5065663;28;20453;-54
2022/04/27 08:13:06;;;;;;;10.82;10.02;;;;;;;10.22;100.00;97569.03;5060537;28;20525;-55
2022/04/27 08:15:34;;;;;;;10.03;9.23;;;;;;;9.99;100.00;97568.97;5027343;28;22027;-53
2022/04/27 08:18:06;;;;;;;10.47;9.57;;;;;;;9.79;100.00;97574.66;5062636;28;20210;-53
2022/04/27 08:23:24;;;;;;;10.00;9.10;;;;;;;9.62;100.00;97578.31;5059309;28;20203;-52
2022/04/27 08:25:52;;;;;;;11.60;10.57;;;;;;;9.71;100.00;97569.38;5058780;28;20536;-55
2022/04/27 08:28:20;;;;;;;10.63;9.73;;;;;;;9.67;100.00;97579.47;5060682;28;20443;-54
2022/04/27 08:30:49;;;;;;;10.53;9.63;;;;;;;9.69;100.00;97577.47;5062783;28;20349;-52
2022/04/27 08:33:19;;;;;;;10.73;9.83;;;;;;;9.99;100.00;97575.09;5004687;28;20222;-56
2022/04/27 08:35:47;;;;;;;11.70;10.60;;;;;;;10.35;100.00;97579.09;5048600;28;20207;-55
2022/04/27 08:38:15;;;;;;;12.57;11.48;;;;;;;10.58;100.00;97573.03;5059533;28;20467;-58
2022/04/27 08:40:46;;;;;;;12.73;11.00;;;;;;;10.84;100.00;97580.66;5061454;28;21016;-56
2022/04/27 08:43:15;;;;;;;10.73;9.83;;;;;;;11.18;100.00;97586.56;5055269;28;20202;-57
2022/04/27 08:45:44;;;;;;;10.57;9.67;;;;;;;11.75;100.00;97592.34;5061398;28;20206;-55
2022/04/27 08:48:14;;;;;;;11.03;10.00;;;;;;;11.22;100.00;97595.81;5023993;28;20273;-56
2022/04/27 08:50:42;;;;;;;11.83;10.87;;;;;;;11.06;100.00;97604.72;5028847;28;20234;-55
2022/04/27 08:53:10;;;;;;;11.53;10.43;;;;;;;11.12;100.00;97598.72;5066488;28;20203;-54
2022/04/27 08:55:40;;;;;;;11.30;10.30;;;;;;;11.34;100.00;97600.69;5068742;28;20202;-59
2022/04/27 08:58:10;;;;;;;11.83;10.83;;;;;;;11.54;100.00;97603.69;5064410;28;20194;-56
2022/04/27 09:01:00;;;;;;;10.90;10.00;;;;;;;11.60;100.00;97604.78;5068123;28;20233;-55
2022/04/27 09:03:29;;;;;;;13.63;12.33;;;;;;;11.75;100.00;97600.31;5025252;28;20216;-58
2022/04/27 09:06:02;;;;;;;11.00;10.07;;;;;;;11.66;100.00;97599.56;5052651;28;20510;-57
2022/04/27 09:08:38;;;;;;;11.40;10.43;;;;;;;12.04;100.00;97598.72;5064853;28;20916;-54
2022/04/27 09:11:13;;;;;;;11.03;9.93;;;;;;;12.31;100.00;97601.72;5067033;28;20231;-55
2022/04/27 09:13:46;;;;;;;10.63;9.63;;;;;;;12.49;100.00;97596.03;5066392;28;20202;-58
2022/04/27 09:16:14;;;;;;;12.00;10.90;;;;;;;12.44;100.00;97593.94;5059788;28;20839;-59
2022/04/27 09:22:06;;;;;;;10.17;9.37;;;;;;;12.80;100.00;97591.47;5025197;28;20251;-56
2022/04/27 09:24:50;;;;;;;10.45;9.65;;;;;;;12.47;100.00;97606.00;5044201;28;20581;-56
2022/04/27 09:27:19;;;;;;;9.17;8.47;;;;;;;12.61;100.00;97608.84;5066118;28;20226;-52
2022/04/27 09:30:07;;;;;;;9.13;8.33;;;;;;;12.51;100.00;97604.66;5045099;28;20765;-59
2022/04/27 09:32:36;;;;;;;8.87;8.17;;;;;;;12.65;100.00;97612.78;5043811;28;20243;-58
2022/04/27 09:35:08;;;;;;;10.07;9.20;;;;;;;12.71;100.00;97609.38;5059344;28;20207;-56
2022/04/27 09:37:41;;;;;;;9.57;8.73;;;;;;;12.56;100.00;97602.25;5048114;28;20214;-57
2022/04/27 09:40:11;;;;;;;10.88;9.98;;;;;;;12.69;100.00;97606.06;5062372;28;20445;-56
2022/04/27 09:42:41;;;;;;;9.27;8.53;;;;;;;13.51;100.00;97593.41;5063232;28;20226;-54
2022/04/27 09:45:19;;;;;;;8.87;8.17;;;;;;;14.16;100.00;97595.84;5049969;28;20680;-55
2022/04/27 09:47:48;;;;;;;9.20;8.40;;;;;;;14.29;100.00;97600.44;5062624;28;20327;-54
2022/04/27 09:50:16;;;;;;;9.20;8.50;;;;;;;14.35;100.00;97598.84;5024485;28;20651;-55
2022/04/27 09:52:45;;;;;;;10.52;9.63;;;;;;;14.30;100.00;97599.41;5045729;28;20503;-54
2022/04/27 09:55:13;;;;;;;9.35;8.57;;;;;;;14.36;100.00;97599.63;5062715;28;20480;-57
2022/04/27 09:57:53;;;;;;;7.80;7.13;;;;;;;14.20;100.00;97601.63;5066975;28;20381;-51
2022/04/27 10:00:25;;;;;;;8.30;7.70;;;;;;;13.17;100.00;97602.91;5053139;28;20230;-57
2022/04/27 10:02:53;;;;;;;8.37;7.77;;;;;;;13.07;100.00;97603.22;5058105;28;20207;-53
2022/04/27 10:05:22;;;;;;;9.40;8.20;;;;;;;13.03;100.00;97610.72;5012532;28;20221;-57
2022/04/27 10:07:51;;;;;;;8.10;7.50;;;;;;;13.51;100.00;97603.22;5063301;28;20769;-55
2022/04/27 10:10:20;;;;;;;7.70;6.90;;;;;;;14.37;100.00;97615.44;5044711;28;20253;-57
2022/04/27 10:12:49;;;;;;;7.93;7.33;;;;;;;14.00;100.00;97612.16;5055590;28;20198;-55
2022/04/27 10:15:17;;;;;;;8.53;7.77;;;;;;;12.94;100.00;97619.84;5063958;28;20301;-56
2022/04/27 10:17:47;;;;;;;8.77;7.97;;;;;;;12.99;100.00;97619.28;5060552;28;20334;-53
2022/04/27 10:20:29;;;;;;;8.63;7.93;;;;;;;12.49;100.00;97624.44;5056600;28;20258;-60
2022/04/27 10:23:24;;;;;;;8.60;7.90;;;;;;;12.26;100.00;97623.56;5066197;28;20233;-54
2022/04/27 10:26:10;;;;;;;8.73;8.03;;;;;;;12.02;100.00;97620.16;5068263;28;20230;-51
2022/04/27 10:28:40;;;;;;;9.35;8.65;;;;;;;12.20;100.00;97615.47;5048329;28;20644;-57
2022/04/27 10:31:08;;;;;;;9.48;8.68;;;;;;;12.22;100.00;97624.09;5065694;28;20456;-55
2022/04/27 10:33:43;;;;;;;9.77;8.98;;;;;;;12.32;100.00;97629.97;5046031;28;20480;-57
2022/04/27 10:36:39;;;;;;;8.83;8.13;;;;;;;12.24;100.00;97622.06;5030830;28;20230;-58
2022/04/27 10:39:20;;;;;;;9.43;8.67;;;;;;;12.55;100.00;97629.84;5068483;28;20782;-58
2022/04/27 10:42:10;;;;;;;8.17;7.47;;;;;;;12.85;100.00;97629.78;5049101;28;20515;-56
2022/04/27 10:45:21;;;;;;;8.87;8.13;;;;;;;13.05;100.00;97618.53;5053515;28;20530;-57
2022/04/27 10:47:50;;;;;;;7.97;7.27;;;;;;;13.14;100.00;97621.91;5051129;28;20649;-54
2022/04/27 10:50:26;;;;;;;8.43;7.73;;;;;;;13.22;100.00;97618.28;5045927;28;20261;-59
2022/04/27 10:52:55;;;;;;;8.23;7.53;;;;;;;13.22;100.00;97626.25;5062300;28;20213;-53
2022/04/27 10:55:42;;;;;;;7.67;7.17;;;;;;;13.51;100.00;97616.53;5047818;28;20210;-57
2022/04/27 10:58:14;;;;;;;7.83;7.23;;;;;;;14.03;100.00;97615.28;5054160;28;20570;-57
2022/04/27 11:01:22;;;;;;;7.67;7.13;;;;;;;14.29;100.00;97619.09;5061959;28;20258;-56
2022/04/27 11:04:11;;;;;;;7.40;6.80;;;;;;;14.21;100.00;97631.78;5051103;28;20206;-52
2022/04/27 11:07:23;;;;;;;7.68;7.18;;;;;;;14.95;100.00;97616.91;5010504;28;20603;-52
2022/04/27 11:10:15;;;;;;;7.33;6.67;;;;;;;14.97;100.00;97627.38;5054249;28;20387;-59
2022/04/27 11:12:48;;;;;;;6.53;6.07;;;;;;;15.10;100.00;97626.59;5029235;28;20942;-55
2022/04/27 11:15:25;;;;;;;6.83;6.33;;;;;;;14.78;100.00;97629.81;5061903;28;20292;-55
2022/04/27 11:17:56;;;;;;;8.63;6.93;;;;;;;14.41;100.00;97624.69;5061080;28;20316;-50
2022/04/27 11:20:26;;;;;;;7.13;6.63;;;;;;;14.06;100.00;97624.69;5049581;28;20226;-51
2022/04/27 11:22:57;;;;;;;6.80;6.37;;;;;;;14.12;100.00;97629.25;5017281;28;20800;-52
2022/04/27 11:25:27;;;;;;;6.63;6.03;;;;;;;14.67;100.00;97633.00;5064843;28;20272;-56
2022/04/27 11:27:56;;;;;;;7.83;6.40;;;;;;;15.56;100.00;97628.50;5034241;28;20210;-57
2022/04/27 11:30:26;;;;;;;7.15;6.65;;;;;;;16.04;98.73;97623.97;5064654;28;20472;-55
2022/04/27 11:32:54;;;;;;;7.40;6.80;;;;;;;16.87;86.06;97621.66;5057922;28;20450;-53
2022/04/27 11:35:24;;;;;;;6.53;6.03;;;;;;;17.41;78.61;97622.16;5052377;28;20674;-49
2022/04/27 11:37:54;;;;;;;5.47;5.07;;;;;;;17.72;66.35;97617.78;5025508;28;20237;-53
2022/04/27 11:40:27;;;;;;;5.73;5.27;;;;;;;18.22;60.56;97621.50;5063939;28;20221;-55
2022/04/27 11:42:59;;;;;;;5.17;4.70;;;;;;;18.30;57.50;97620.34;5042100;28;20210;-55
2022/04/27 11:45:28;;;;;;;4.90;4.57;;;;;;;18.22;50.88;97616.94;5063852;28;20203;-52
2022/04/27 11:47:58;;;;;;;5.63;5.23;;;;;;;17.83;54.19;97618.94;5062830;28;20207;-55
2022/04/27 11:50:26;;;;;;;4.97;4.67;;;;;;;17.53;55.43;97621.47;5058180;28;20317;-56
2022/04/27 11:53:02;;;;;;;5.07;4.67;;;;;;;17.66;54.34;97618.69;5022747;28;20369;-57
2022/04/27 11:55:33;;;;;;;5.63;5.20;;;;;;;17.98;51.42;97617.75;5064353;28;20586;-55
2022/04/27 11:58:01;;;;;;;4.97;4.57;;;;;;;18.12;50.80;97619.31;5030293;28;20538;-58
2022/04/27 12:00:31;;;;;;;5.05;4.75;;;;;;;17.96;50.67;97625.22;5060331;28;20477;-57
2022/04/27 12:03:03;;;;;;;5.03;4.63;;;;;;;17.91;47.95;97620.53;5058471;28;20203;-58